sensor_id;sensor_type;location;lat;lon;timestamp;temperature;humidity
4453;DHT22;2239;48.152;11.584;2023-12-20T00:00:13;7.30;62.70
4453;DHT22;2239;48.152;11.584;2023-12-20T00:02:39;7.30;63.10
4453;DHT22;2239;48.152;11.584;2023-12-20T00:05:05;7.20;63.30
4453;DHT22;2239;48.152;11.584;2023-12-20T00:07:30;7.20;63.80
4453;DHT22;2239;48.152;11.584;2023-12-20T00:09:56;7.20;64.30
4453;DHT22;2239;48.152;11.584;2023-12-20T00:12:22;7.20;64.60
4453;DHT22;2239;48.152;11.584;2023-12-20T00:14:48;7.20;65.20
4453;DHT22;2239;48.152;11.584;2023-12-20T00:17:13;7.10;65.70
4453;DHT22;2239;48.152;11.584;2023-12-20T00:19:40;7.10;66.30
4453;DHT22;2239;48.152;11.584;2023-12-20T00:22:05;7.20;66.90
4453;DHT22;2239;48.152;11.584;2023-12-20T00:24:31;7.20;67.20
4453;DHT22;2239;48.152;11.584;2023-12-20T00:26:56;7.20;67.50
4453;DHT22;2239;48.152;11.584;2023-12-20T00:29:22;7.20;67.90
4453;DHT22;2239;48.152;11.584;2023-12-20T00:31:47;7.20;68.30
4453;DHT22;2239;48.152;11.584;2023-12-20T00:34:13;7.20;68.40
4453;DHT22;2239;48.152;11.584;2023-12-20T00:36:38;7.10;68.60
4453;DHT22;2239;48.152;11.584;2023-12-20T00:39:04;7.20;68.80
4453;DHT22;2239;48.152;11.584;2023-12-20T00:41:29;7.20;68.80
4453;DHT22;2239;48.152;11.584;2023-12-20T00:43:55;7.20;68.70
4453;DHT22;2239;48.152;11.584;2023-12-20T00:46:20;7.20;68.20
4453;DHT22;2239;48.152;11.584;2023-12-20T00:48:46;7.20;68.00
4453;DHT22;2239;48.152;11.584;2023-12-20T00:51:11;7.20;67.40
4453;DHT22;2239;48.152;11.584;2023-12-20T00:53:37;7.30;66.90
4453;DHT22;2239;48.152;11.584;2023-12-20T00:56:03;7.20;65.80
4453;DHT22;2239;48.152;11.584;2023-12-20T00:58:28;7.30;65.70
4453;DHT22;2239;48.152;11.584;2023-12-20T01:00:54;7.30;64.80
4453;DHT22;2239;48.152;11.584;2023-12-20T01:03:19;7.40;65.30
4453;DHT22;2239;48.152;11.584;2023-12-20T01:05:45;7.40;64.20
4453;DHT22;2239;48.152;11.584;2023-12-20T01:08:11;7.40;64.00
4453;DHT22;2239;48.152;11.584;2023-12-20T01:10:36;7.50;64.00
4453;DHT22;2239;48.152;11.584;2023-12-20T01:13:02;7.50;63.80
4453;DHT22;2239;48.152;11.584;2023-12-20T01:15:27;7.50;63.10
4453;DHT22;2239;48.152;11.584;2023-12-20T01:17:53;7.50;63.30
4453;DHT22;2239;48.152;11.584;2023-12-20T01:20:18;7.50;63.00
4453;DHT22;2239;48.152;11.584;2023-12-20T01:22:45;7.50;63.30
4453;DHT22;2239;48.152;11.584;2023-12-20T01:25:11;7.50;62.90
4453;DHT22;2239;48.152;11.584;2023-12-20T01:27:37;7.50;63.50
4453;DHT22;2239;48.152;11.584;2023-12-20T01:30:02;7.50;63.80
4453;DHT22;2239;48.152;11.584;2023-12-20T01:32:28;7.50;64.20
4453;DHT22;2239;48.152;11.584;2023-12-20T01:34:54;7.50;65.10
4453;DHT22;2239;48.152;11.584;2023-12-20T01:37:19;7.50;65.50
4453;DHT22;2239;48.152;11.584;2023-12-20T01:39:45;7.50;65.40
4453;DHT22;2239;48.152;11.584;2023-12-20T01:42:10;7.50;65.80
4453;DHT22;2239;48.152;11.584;2023-12-20T01:44:36;7.50;66.30
4453;DHT22;2239;48.152;11.584;2023-12-20T01:47:01;7.50;66.70
4453;DHT22;2239;48.152;11.584;2023-12-20T01:49:27;7.50;66.90
4453;DHT22;2239;48.152;11.584;2023-12-20T01:51:54;7.50;67.30
4453;DHT22;2239;48.152;11.584;2023-12-20T01:54:20;7.60;67.70
4453;DHT22;2239;48.152;11.584;2023-12-20T01:56:46;7.50;67.60
4453;DHT22;2239;48.152;11.584;2023-12-20T01:59:12;7.60;67.70
4453;DHT22;2239;48.152;11.584;2023-12-20T02:01:38;7.60;67.70
4453;DHT22;2239;48.152;11.584;2023-12-20T02:04:04;7.60;67.70
4453;DHT22;2239;48.152;11.584;2023-12-20T02:06:30;7.50;67.40
4453;DHT22;2239;48.152;11.584;2023-12-20T02:08:59;7.50;67.60
4453;DHT22;2239;48.152;11.584;2023-12-20T02:11:25;7.60;67.40
4453;DHT22;2239;48.152;11.584;2023-12-20T02:13:52;7.50;68.10
4453;DHT22;2239;48.152;11.584;2023-12-20T02:16:17;7.60;67.50
4453;DHT22;2239;48.152;11.584;2023-12-20T02:18:43;7.50;67.30
4453;DHT22;2239;48.152;11.584;2023-12-20T02:21:10;7.60;67.30
4453;DHT22;2239;48.152;11.584;2023-12-20T02:23:36;7.60;67.20
4453;DHT22;2239;48.152;11.584;2023-12-20T02:26:03;7.60;67.30
4453;DHT22;2239;48.152;11.584;2023-12-20T02:28:31;7.60;67.50
4453;DHT22;2239;48.152;11.584;2023-12-20T02:30:57;7.70;68.10
4453;DHT22;2239;48.152;11.584;2023-12-20T02:33:23;7.70;68.10
4453;DHT22;2239;48.152;11.584;2023-12-20T02:35:48;7.70;68.90
4453;DHT22;2239;48.152;11.584;2023-12-20T02:38:14;7.70;69.10
4453;DHT22;2239;48.152;11.584;2023-12-20T02:40:39;7.70;69.40
4453;DHT22;2239;48.152;11.584;2023-12-20T02:43:05;7.80;69.80
4453;DHT22;2239;48.152;11.584;2023-12-20T02:45:30;7.80;70.10
4453;DHT22;2239;48.152;11.584;2023-12-20T02:47:56;7.80;70.60
4453;DHT22;2239;48.152;11.584;2023-12-20T02:50:21;7.70;70.90
4453;DHT22;2239;48.152;11.584;2023-12-20T02:52:47;7.80;71.40
4453;DHT22;2239;48.152;11.584;2023-12-20T02:55:13;7.70;71.70
4453;DHT22;2239;48.152;11.584;2023-12-20T02:57:38;7.80;72.40
4453;DHT22;2239;48.152;11.584;2023-12-20T03:00:08;7.80;72.90
4453;DHT22;2239;48.152;11.584;2023-12-20T03:02:34;7.80;73.30
4453;DHT22;2239;48.152;11.584;2023-12-20T03:05:00;7.80;73.70
4453;DHT22;2239;48.152;11.584;2023-12-20T03:07:26;7.80;74.10
4453;DHT22;2239;48.152;11.584;2023-12-20T03:09:51;7.80;74.40
4453;DHT22;2239;48.152;11.584;2023-12-20T03:12:17;7.80;75.10
4453;DHT22;2239;48.152;11.584;2023-12-20T03:14:43;7.80;75.90
4453;DHT22;2239;48.152;11.584;2023-12-20T03:17:09;7.80;77.20
4453;DHT22;2239;48.152;11.584;2023-12-20T03:19:35;7.80;77.50
4453;DHT22;2239;48.152;11.584;2023-12-20T03:22:00;7.80;78.10
4453;DHT22;2239;48.152;11.584;2023-12-20T03:24:26;7.80;79.00
4453;DHT22;2239;48.152;11.584;2023-12-20T03:26:52;7.80;80.00
4453;DHT22;2239;48.152;11.584;2023-12-20T03:29:17;7.80;81.00
4453;DHT22;2239;48.152;11.584;2023-12-20T03:31:43;7.80;81.50
4453;DHT22;2239;48.152;11.584;2023-12-20T03:34:08;7.80;82.40
4453;DHT22;2239;48.152;11.584;2023-12-20T03:36:34;7.80;83.60
4453;DHT22;2239;48.152;11.584;2023-12-20T03:39:00;7.80;84.60
4453;DHT22;2239;48.152;11.584;2023-12-20T03:41:25;7.80;85.40
4453;DHT22;2239;48.152;11.584;2023-12-20T03:43:51;7.90;86.60
4453;DHT22;2239;48.152;11.584;2023-12-20T03:46:16;7.80;88.40
4453;DHT22;2239;48.152;11.584;2023-12-20T03:48:42;7.80;89.70
4453;DHT22;2239;48.152;11.584;2023-12-20T03:51:07;7.80;90.60
4453;DHT22;2239;48.152;11.584;2023-12-20T03:53:33;7.80;91.20
4453;DHT22;2239;48.152;11.584;2023-12-20T03:55:59;7.80;91.60
4453;DHT22;2239;48.152;11.584;2023-12-20T03:58:25;7.70;92.50
4453;DHT22;2239;48.152;11.584;2023-12-20T04:00:50;7.70;93.40
4453;DHT22;2239;48.152;11.584;2023-12-20T04:03:16;7.70;94.60
4453;DHT22;2239;48.152;11.584;2023-12-20T04:05:41;7.60;95.90
4453;DHT22;2239;48.152;11.584;2023-12-20T04:08:07;7.60;97.00
4453;DHT22;2239;48.152;11.584;2023-12-20T04:10:33;7.60;97.60
4453;DHT22;2239;48.152;11.584;2023-12-20T04:12:59;7.60;98.50
4453;DHT22;2239;48.152;11.584;2023-12-20T04:15:24;7.50;99.30
4453;DHT22;2239;48.152;11.584;2023-12-20T04:17:50;7.50;99.90
4453;DHT22;2239;48.152;11.584;2023-12-20T04:20:15;7.50;99.90
4453;DHT22;2239;48.152;11.584;2023-12-20T04:22:41;7.40;99.90
4453;DHT22;2239;48.152;11.584;2023-12-20T04:25:08;7.40;99.90
4453;DHT22;2239;48.152;11.584;2023-12-20T04:27:33;7.40;99.90
4453;DHT22;2239;48.152;11.584;2023-12-20T04:29:59;7.30;99.90
4453;DHT22;2239;48.152;11.584;2023-12-20T04:32:24;7.30;99.90
4453;DHT22;2239;48.152;11.584;2023-12-20T04:34:50;7.30;99.90
4453;DHT22;2239;48.152;11.584;2023-12-20T04:37:16;7.20;99.90
4453;DHT22;2239;48.152;11.584;2023-12-20T04:39:41;7.20;99.90
4453;DHT22;2239;48.152;11.584;2023-12-20T04:42:07;7.20;99.90
4453;DHT22;2239;48.152;11.584;2023-12-20T04:44:34;7.10;99.90
4453;DHT22;2239;48.152;11.584;2023-12-20T04:47:00;7.10;99.90
4453;DHT22;2239;48.152;11.584;2023-12-20T04:49:26;7.10;99.90
4453;DHT22;2239;48.152;11.584;2023-12-20T04:51:52;7.20;99.90
4453;DHT22;2239;48.152;11.584;2023-12-20T04:54:18;7.10;99.90
4453;DHT22;2239;48.152;11.584;2023-12-20T04:56:43;7.10;99.90
4453;DHT22;2239;48.152;11.584;2023-12-20T04:59:09;7.10;99.90
4453;DHT22;2239;48.152;11.584;2023-12-20T05:01:34;7.00;99.90
4453;DHT22;2239;48.152;11.584;2023-12-20T05:04:00;7.00;99.90
4453;DHT22;2239;48.152;11.584;2023-12-20T05:06:25;7.00;99.90
4453;DHT22;2239;48.152;11.584;2023-12-20T05:08:51;6.90;99.90
4453;DHT22;2239;48.152;11.584;2023-12-20T05:11:17;6.80;99.90
4453;DHT22;2239;48.152;11.584;2023-12-20T05:13:42;6.80;99.90
4453;DHT22;2239;48.152;11.584;2023-12-20T05:16:08;6.70;99.90
4453;DHT22;2239;48.152;11.584;2023-12-20T05:18:34;6.70;99.90
4453;DHT22;2239;48.152;11.584;2023-12-20T05:21:00;6.70;99.90
4453;DHT22;2239;48.152;11.584;2023-12-20T05:23:25;6.60;99.90
4453;DHT22;2239;48.152;11.584;2023-12-20T05:25:51;6.70;99.90
4453;DHT22;2239;48.152;11.584;2023-12-20T05:28:16;6.60;99.90
4453;DHT22;2239;48.152;11.584;2023-12-20T05:30:42;6.60;99.90
4453;DHT22;2239;48.152;11.584;2023-12-20T05:33:08;6.60;99.90
4453;DHT22;2239;48.152;11.584;2023-12-20T05:35:34;6.60;99.90
4453;DHT22;2239;48.152;11.584;2023-12-20T05:38:00;6.60;99.90
4453;DHT22;2239;48.152;11.584;2023-12-20T05:40:25;6.50;99.90
4453;DHT22;2239;48.152;11.584;2023-12-20T05:42:51;6.50;99.90
4453;DHT22;2239;48.152;11.584;2023-12-20T05:45:16;6.40;99.90
4453;DHT22;2239;48.152;11.584;2023-12-20T05:47:42;6.40;99.90
4453;DHT22;2239;48.152;11.584;2023-12-20T05:50:08;6.40;99.90
4453;DHT22;2239;48.152;11.584;2023-12-20T05:52:34;6.40;99.90
4453;DHT22;2239;48.152;11.584;2023-12-20T05:54:59;6.40;99.90
4453;DHT22;2239;48.152;11.584;2023-12-20T05:57:27;6.30;99.90
4453;DHT22;2239;48.152;11.584;2023-12-20T05:59:52;6.30;99.90
4453;DHT22;2239;48.152;11.584;2023-12-20T06:02:18;6.30;99.90
4453;DHT22;2239;48.152;11.584;2023-12-20T06:04:44;6.30;99.90
4453;DHT22;2239;48.152;11.584;2023-12-20T06:07:12;6.20;99.90
4453;DHT22;2239;48.152;11.584;2023-12-20T06:09:38;6.20;99.90
4453;DHT22;2239;48.152;11.584;2023-12-20T06:12:04;6.10;99.90
4453;DHT22;2239;48.152;11.584;2023-12-20T06:14:30;6.10;99.90
4453;DHT22;2239;48.152;11.584;2023-12-20T06:16:57;6.10;99.90
4453;DHT22;2239;48.152;11.584;2023-12-20T06:19:22;6.00;99.90
4453;DHT22;2239;48.152;11.584;2023-12-20T06:21:48;6.00;99.90
4453;DHT22;2239;48.152;11.584;2023-12-20T06:24:14;6.00;99.90
4453;DHT22;2239;48.152;11.584;2023-12-20T06:26:39;6.00;99.90
4453;DHT22;2239;48.152;11.584;2023-12-20T06:29:05;6.00;99.90
4453;DHT22;2239;48.152;11.584;2023-12-20T06:31:31;6.00;99.90
4453;DHT22;2239;48.152;11.584;2023-12-20T06:33:58;5.90;99.90
4453;DHT22;2239;48.152;11.584;2023-12-20T06:36:25;5.90;99.90
4453;DHT22;2239;48.152;11.584;2023-12-20T06:38:51;5.80;99.90
4453;DHT22;2239;48.152;11.584;2023-12-20T06:41:17;5.80;99.90
4453;DHT22;2239;48.152;11.584;2023-12-20T06:43:42;5.70;99.90
4453;DHT22;2239;48.152;11.584;2023-12-20T06:46:08;5.70;99.90
4453;DHT22;2239;48.152;11.584;2023-12-20T06:48:34;5.70;99.90
4453;DHT22;2239;48.152;11.584;2023-12-20T06:51:00;5.80;99.90
4453;DHT22;2239;48.152;11.584;2023-12-20T06:53:27;5.70;99.90
4453;DHT22;2239;48.152;11.584;2023-12-20T06:55:53;5.70;99.90
4453;DHT22;2239;48.152;11.584;2023-12-20T06:58:18;5.70;99.90
4453;DHT22;2239;48.152;11.584;2023-12-20T07:00:44;5.70;99.90
4453;DHT22;2239;48.152;11.584;2023-12-20T07:03:10;5.70;99.90
4453;DHT22;2239;48.152;11.584;2023-12-20T07:05:35;5.60;99.90
4453;DHT22;2239;48.152;11.584;2023-12-20T07:08:01;5.60;99.90
4453;DHT22;2239;48.152;11.584;2023-12-20T07:10:26;5.60;99.90
4453;DHT22;2239;48.152;11.584;2023-12-20T07:12:52;5.60;99.90
4453;DHT22;2239;48.152;11.584;2023-12-20T07:15:21;5.60;99.90
4453;DHT22;2239;48.152;11.584;2023-12-20T07:17:46;5.50;99.90
4453;DHT22;2239;48.152;11.584;2023-12-20T07:20:12;5.50;99.90
4453;DHT22;2239;48.152;11.584;2023-12-20T07:22:37;5.50;99.90
4453;DHT22;2239;48.152;11.584;2023-12-20T07:25:03;5.50;99.90
4453;DHT22;2239;48.152;11.584;2023-12-20T07:27:29;5.50;99.90
4453;DHT22;2239;48.152;11.584;2023-12-20T07:29:54;5.60;99.90
4453;DHT22;2239;48.152;11.584;2023-12-20T07:32:20;5.50;99.90
4453;DHT22;2239;48.152;11.584;2023-12-20T07:34:46;5.50;99.90
4453;DHT22;2239;48.152;11.584;2023-12-20T07:37:11;5.50;99.90
4453;DHT22;2239;48.152;11.584;2023-12-20T07:39:40;5.50;99.90
4453;DHT22;2239;48.152;11.584;2023-12-20T07:42:07;5.50;99.90
4453;DHT22;2239;48.152;11.584;2023-12-20T07:44:32;5.40;99.90
4453;DHT22;2239;48.152;11.584;2023-12-20T07:46:58;5.40;99.90
4453;DHT22;2239;48.152;11.584;2023-12-20T07:49:23;5.40;99.90
4453;DHT22;2239;48.152;11.584;2023-12-20T07:51:49;5.40;99.90
4453;DHT22;2239;48.152;11.584;2023-12-20T07:54:15;5.40;99.90
4453;DHT22;2239;48.152;11.584;2023-12-20T07:56:41;5.40;99.90
4453;DHT22;2239;48.152;11.584;2023-12-20T07:59:07;5.40;99.90
4453;DHT22;2239;48.152;11.584;2023-12-20T08:01:32;5.40;99.90
4453;DHT22;2239;48.152;11.584;2023-12-20T08:03:58;5.40;99.90
4453;DHT22;2239;48.152;11.584;2023-12-20T08:06:24;5.40;99.90
4453;DHT22;2239;48.152;11.584;2023-12-20T08:08:49;5.40;99.90
4453;DHT22;2239;48.152;11.584;2023-12-20T08:11:15;5.40;99.90
4453;DHT22;2239;48.152;11.584;2023-12-20T08:13:41;5.40;99.90
4453;DHT22;2239;48.152;11.584;2023-12-20T08:16:06;5.30;99.90
4453;DHT22;2239;48.152;11.584;2023-12-20T08:18:32;5.40;99.90
4453;DHT22;2239;48.152;11.584;2023-12-20T08:20:57;5.40;99.90
4453;DHT22;2239;48.152;11.584;2023-12-20T08:23:23;5.50;99.90
4453;DHT22;2239;48.152;11.584;2023-12-20T08:25:49;5.40;99.90
4453;DHT22;2239;48.152;11.584;2023-12-20T08:28:14;5.40;99.90
4453;DHT22;2239;48.152;11.584;2023-12-20T08:30:40;5.40;99.90
4453;DHT22;2239;48.152;11.584;2023-12-20T08:33:06;5.40;99.90
4453;DHT22;2239;48.152;11.584;2023-12-20T08:35:36;5.40;99.90
4453;DHT22;2239;48.152;11.584;2023-12-20T08:38:02;5.40;99.90
4453;DHT22;2239;48.152;11.584;2023-12-20T08:40:29;5.40;99.90
4453;DHT22;2239;48.152;11.584;2023-12-20T08:42:55;5.40;99.90
4453;DHT22;2239;48.152;11.584;2023-12-20T08:45:20;5.40;99.90
4453;DHT22;2239;48.152;11.584;2023-12-20T08:47:46;5.40;99.90
4453;DHT22;2239;48.152;11.584;2023-12-20T08:50:12;5.50;99.90
4453;DHT22;2239;48.152;11.584;2023-12-20T08:52:37;5.50;99.90
4453;DHT22;2239;48.152;11.584;2023-12-20T08:55:03;5.50;99.90
4453;DHT22;2239;48.152;11.584;2023-12-20T08:57:29;5.50;99.90
4453;DHT22;2239;48.152;11.584;2023-12-20T08:59:57;5.50;99.90
4453;DHT22;2239;48.152;11.584;2023-12-20T09:02:22;5.50;99.90
4453;DHT22;2239;48.152;11.584;2023-12-20T09:04:48;5.50;99.90
4453;DHT22;2239;48.152;11.584;2023-12-20T09:07:24;5.50;99.90
4453;DHT22;2239;48.152;11.584;2023-12-20T09:09:50;5.60;99.90
4453;DHT22;2239;48.152;11.584;2023-12-20T09:12:18;5.60;99.90
4453;DHT22;2239;48.152;11.584;2023-12-20T09:14:44;5.60;99.90
4453;DHT22;2239;48.152;11.584;2023-12-20T09:17:09;5.60;99.90
4453;DHT22;2239;48.152;11.584;2023-12-20T09:19:36;5.60;99.90
4453;DHT22;2239;48.152;11.584;2023-12-20T09:22:02;5.60;99.90
4453;DHT22;2239;48.152;11.584;2023-12-20T09:24:30;5.60;99.90
4453;DHT22;2239;48.152;11.584;2023-12-20T09:26:56;5.60;99.90
4453;DHT22;2239;48.152;11.584;2023-12-20T09:29:22;5.70;99.90
4453;DHT22;2239;48.152;11.584;2023-12-20T09:31:47;5.70;99.90
4453;DHT22;2239;48.152;11.584;2023-12-20T09:34:15;5.70;99.90
4453;DHT22;2239;48.152;11.584;2023-12-20T09:36:41;5.70;99.90
4453;DHT22;2239;48.152;11.584;2023-12-20T09:39:13;5.80;99.90
4453;DHT22;2239;48.152;11.584;2023-12-20T09:41:42;5.80;99.90
4453;DHT22;2239;48.152;11.584;2023-12-20T09:44:14;5.80;99.90
4453;DHT22;2239;48.152;11.584;2023-12-20T09:46:43;5.70;99.90
4453;DHT22;2239;48.152;11.584;2023-12-20T09:49:10;5.70;99.90
4453;DHT22;2239;48.152;11.584;2023-12-20T09:51:36;5.70;99.90
4453;DHT22;2239;48.152;11.584;2023-12-20T09:54:03;5.70;99.90
4453;DHT22;2239;48.152;11.584;2023-12-20T09:56:29;5.70;99.90
4453;DHT22;2239;48.152;11.584;2023-12-20T09:58:55;5.70;99.90
4453;DHT22;2239;48.152;11.584;2023-12-20T10:01:21;5.70;99.90
4453;DHT22;2239;48.152;11.584;2023-12-20T10:03:47;5.80;99.90
4453;DHT22;2239;48.152;11.584;2023-12-20T10:06:13;5.80;99.90
4453;DHT22;2239;48.152;11.584;2023-12-20T10:08:38;5.80;99.90
4453;DHT22;2239;48.152;11.584;2023-12-20T10:11:05;5.80;99.90
4453;DHT22;2239;48.152;11.584;2023-12-20T10:13:30;5.90;99.90
4453;DHT22;2239;48.152;11.584;2023-12-20T10:15:56;5.90;99.90
4453;DHT22;2239;48.152;11.584;2023-12-20T10:18:22;6.00;99.90
4453;DHT22;2239;48.152;11.584;2023-12-20T10:20:48;6.00;99.90
4453;DHT22;2239;48.152;11.584;2023-12-20T10:23:15;6.10;99.90
4453;DHT22;2239;48.152;11.584;2023-12-20T10:25:41;6.20;99.90
4453;DHT22;2239;48.152;11.584;2023-12-20T10:28:13;6.30;99.90
4453;DHT22;2239;48.152;11.584;2023-12-20T10:30:40;6.30;99.90
4453;DHT22;2239;48.152;11.584;2023-12-20T10:33:07;6.30;99.90
4453;DHT22;2239;48.152;11.584;2023-12-20T10:35:36;6.40;99.90
4453;DHT22;2239;48.152;11.584;2023-12-20T10:38:06;6.40;99.90
4453;DHT22;2239;48.152;11.584;2023-12-20T10:40:35;6.40;99.90
4453;DHT22;2239;48.152;11.584;2023-12-20T10:43:04;6.30;99.90
4453;DHT22;2239;48.152;11.584;2023-12-20T10:45:30;6.30;99.90
4453;DHT22;2239;48.152;11.584;2023-12-20T10:47:57;6.30;99.90
4453;DHT22;2239;48.152;11.584;2023-12-20T10:50:25;6.30;99.90
4453;DHT22;2239;48.152;11.584;2023-12-20T10:52:52;6.30;99.90
4453;DHT22;2239;48.152;11.584;2023-12-20T10:55:21;6.30;99.90
4453;DHT22;2239;48.152;11.584;2023-12-20T10:57:47;6.20;99.90
4453;DHT22;2239;48.152;11.584;2023-12-20T11:00:18;6.30;99.90
4453;DHT22;2239;48.152;11.584;2023-12-20T11:02:43;6.20;99.90
4453;DHT22;2239;48.152;11.584;2023-12-20T11:08:38;6.20;99.90
4453;DHT22;2239;48.152;11.584;2023-12-20T11:11:15;6.20;99.90
4453;DHT22;2239;48.152;11.584;2023-12-20T11:13:55;6.20;99.90
4453;DHT22;2239;48.152;11.584;2023-12-20T11:16:23;6.10;99.90
4453;DHT22;2239;48.152;11.584;2023-12-20T11:18:51;6.10;99.90
4453;DHT22;2239;48.152;11.584;2023-12-20T11:21:16;6.10;99.90
4453;DHT22;2239;48.152;11.584;2023-12-20T11:23:42;6.10;99.90
4453;DHT22;2239;48.152;11.584;2023-12-20T11:26:08;6.10;99.90
4453;DHT22;2239;48.152;11.584;2023-12-20T11:28:33;6.10;99.90
4453;DHT22;2239;48.152;11.584;2023-12-20T11:31:01;6.20;99.90
4453;DHT22;2239;48.152;11.584;2023-12-20T11:33:30;6.20;99.90
4453;DHT22;2239;48.152;11.584;2023-12-20T11:35:57;6.30;99.90
4453;DHT22;2239;48.152;11.584;2023-12-20T11:38:23;6.30;99.90
4453;DHT22;2239;48.152;11.584;2023-12-20T11:40:50;6.30;99.90
4453;DHT22;2239;48.152;11.584;2023-12-20T11:43:44;6.30;99.90
4453;DHT22;2239;48.152;11.584;2023-12-20T11:46:09;6.40;99.90
4453;DHT22;2239;48.152;11.584;2023-12-20T11:48:37;6.40;99.90
4453;DHT22;2239;48.152;11.584;2023-12-20T11:51:09;6.40;99.90
4453;DHT22;2239;48.152;11.584;2023-12-20T11:53:35;6.50;99.90
4453;DHT22;2239;48.152;11.584;2023-12-20T11:56:03;6.50;99.90
4453;DHT22;2239;48.152;11.584;2023-12-20T11:58:29;6.50;99.90
4453;DHT22;2239;48.152;11.584;2023-12-20T12:00:55;6.50;99.90
4453;DHT22;2239;48.152;11.584;2023-12-20T12:03:21;6.60;99.90
4453;DHT22;2239;48.152;11.584;2023-12-20T12:05:50;6.60;99.90
4453;DHT22;2239;48.152;11.584;2023-12-20T12:08:16;6.60;99.90
4453;DHT22;2239;48.152;11.584;2023-12-20T12:10:43;6.70;99.90
4453;DHT22;2239;48.152;11.584;2023-12-20T12:13:09;6.70;99.90
4453;DHT22;2239;48.152;11.584;2023-12-20T12:15:36;6.70;99.90
4453;DHT22;2239;48.152;11.584;2023-12-20T12:18:02;6.70;99.90
4453;DHT22;2239;48.152;11.584;2023-12-20T12:20:27;6.70;99.90
4453;DHT22;2239;48.152;11.584;2023-12-20T12:23:00;6.70;99.90
4453;DHT22;2239;48.152;11.584;2023-12-20T12:25:26;6.60;99.90
4453;DHT22;2239;48.152;11.584;2023-12-20T12:27:52;6.60;99.90
4453;DHT22;2239;48.152;11.584;2023-12-20T12:30:18;6.60;99.90
4453;DHT22;2239;48.152;11.584;2023-12-20T12:32:44;6.60;99.90
4453;DHT22;2239;48.152;11.584;2023-12-20T12:35:10;6.60;99.90
4453;DHT22;2239;48.152;11.584;2023-12-20T12:37:39;6.70;99.90
4453;DHT22;2239;48.152;11.584;2023-12-20T12:40:07;6.70;99.90
4453;DHT22;2239;48.152;11.584;2023-12-20T12:42:32;6.70;99.90
4453;DHT22;2239;48.152;11.584;2023-12-20T12:44:58;6.70;99.90
4453;DHT22;2239;48.152;11.584;2023-12-20T12:47:24;6.70;99.90
4453;DHT22;2239;48.152;11.584;2023-12-20T12:49:51;6.70;99.90
4453;DHT22;2239;48.152;11.584;2023-12-20T12:52:18;6.70;99.90
4453;DHT22;2239;48.152;11.584;2023-12-20T12:54:44;6.60;99.90
4453;DHT22;2239;48.152;11.584;2023-12-20T12:57:11;6.60;99.90
4453;DHT22;2239;48.152;11.584;2023-12-20T12:59:36;6.60;99.90
4453;DHT22;2239;48.152;11.584;2023-12-20T13:02:02;6.60;99.90
4453;DHT22;2239;48.152;11.584;2023-12-20T13:04:27;6.70;99.90
4453;DHT22;2239;48.152;11.584;2023-12-20T13:06:53;6.70;99.90
4453;DHT22;2239;48.152;11.584;2023-12-20T13:09:19;6.60;99.90
4453;DHT22;2239;48.152;11.584;2023-12-20T13:11:45;6.50;99.90
4453;DHT22;2239;48.152;11.584;2023-12-20T13:14:11;6.30;99.90
4453;DHT22;2239;48.152;11.584;2023-12-20T13:16:41;6.20;99.90
4453;DHT22;2239;48.152;11.584;2023-12-20T13:19:06;6.10;99.90
4453;DHT22;2239;48.152;11.584;2023-12-20T13:21:32;6.00;99.90
4453;DHT22;2239;48.152;11.584;2023-12-20T13:23:59;5.90;99.90
4453;DHT22;2239;48.152;11.584;2023-12-20T13:26:24;5.90;99.90
4453;DHT22;2239;48.152;11.584;2023-12-20T13:28:50;5.90;99.90
4453;DHT22;2239;48.152;11.584;2023-12-20T13:31:15;5.90;99.90
4453;DHT22;2239;48.152;11.584;2023-12-20T13:33:41;5.90;99.90
4453;DHT22;2239;48.152;11.584;2023-12-20T13:36:07;5.80;99.90
4453;DHT22;2239;48.152;11.584;2023-12-20T13:38:33;5.70;99.90
4453;DHT22;2239;48.152;11.584;2023-12-20T13:40:58;5.70;99.90
4453;DHT22;2239;48.152;11.584;2023-12-20T13:43:24;5.80;99.90
4453;DHT22;2239;48.152;11.584;2023-12-20T13:45:50;5.80;99.90
4453;DHT22;2239;48.152;11.584;2023-12-20T13:48:16;5.80;99.90
4453;DHT22;2239;48.152;11.584;2023-12-20T13:50:42;5.80;99.90
4453;DHT22;2239;48.152;11.584;2023-12-20T13:53:07;5.80;99.90
4453;DHT22;2239;48.152;11.584;2023-12-20T13:55:33;5.80;99.90
4453;DHT22;2239;48.152;11.584;2023-12-20T13:57:58;5.80;99.90
4453;DHT22;2239;48.152;11.584;2023-12-20T14:00:24;5.90;99.90
4453;DHT22;2239;48.152;11.584;2023-12-20T14:02:50;5.90;99.90
4453;DHT22;2239;48.152;11.584;2023-12-20T14:05:16;6.00;99.90
4453;DHT22;2239;48.152;11.584;2023-12-20T14:07:43;6.00;99.90
4453;DHT22;2239;48.152;11.584;2023-12-20T14:10:13;6.00;99.90
4453;DHT22;2239;48.152;11.584;2023-12-20T14:12:39;6.00;99.90
4453;DHT22;2239;48.152;11.584;2023-12-20T14:15:06;6.00;99.90
4453;DHT22;2239;48.152;11.584;2023-12-20T14:17:37;5.90;99.90
4453;DHT22;2239;48.152;11.584;2023-12-20T14:20:03;5.90;99.90
4453;DHT22;2239;48.152;11.584;2023-12-20T14:22:28;5.90;99.90
4453;DHT22;2239;48.152;11.584;2023-12-20T14:24:54;5.90;99.90
4453;DHT22;2239;48.152;11.584;2023-12-20T14:27:20;5.90;99.90
4453;DHT22;2239;48.152;11.584;2023-12-20T14:29:48;5.90;99.90
4453;DHT22;2239;48.152;11.584;2023-12-20T14:32:14;5.90;99.90
4453;DHT22;2239;48.152;11.584;2023-12-20T14:34:40;5.90;99.90
4453;DHT22;2239;48.152;11.584;2023-12-20T14:37:06;5.80;99.90
4453;DHT22;2239;48.152;11.584;2023-12-20T14:39:31;5.80;99.90
4453;DHT22;2239;48.152;11.584;2023-12-20T14:41:57;5.70;99.90
4453;DHT22;2239;48.152;11.584;2023-12-20T14:44:23;5.70;99.90
4453;DHT22;2239;48.152;11.584;2023-12-20T14:46:48;5.60;99.90
4453;DHT22;2239;48.152;11.584;2023-12-20T14:49:14;5.60;99.90
4453;DHT22;2239;48.152;11.584;2023-12-20T14:51:39;5.60;99.90
4453;DHT22;2239;48.152;11.584;2023-12-20T14:54:08;5.60;99.90
4453;DHT22;2239;48.152;11.584;2023-12-20T14:56:35;5.70;99.90
4453;DHT22;2239;48.152;11.584;2023-12-20T14:59:01;5.60;99.90
4453;DHT22;2239;48.152;11.584;2023-12-20T15:01:26;5.60;99.90
4453;DHT22;2239;48.152;11.584;2023-12-20T15:03:52;5.60;99.90
4453;DHT22;2239;48.152;11.584;2023-12-20T15:06:18;5.60;99.90
4453;DHT22;2239;48.152;11.584;2023-12-20T15:08:45;5.60;99.90
4453;DHT22;2239;48.152;11.584;2023-12-20T15:11:11;5.50;99.90
4453;DHT22;2239;48.152;11.584;2023-12-20T15:13:36;5.50;99.90
4453;DHT22;2239;48.152;11.584;2023-12-20T15:16:02;5.40;99.90
4453;DHT22;2239;48.152;11.584;2023-12-20T15:18:30;5.40;99.90
4453;DHT22;2239;48.152;11.584;2023-12-20T15:20:57;5.40;99.90
4453;DHT22;2239;48.152;11.584;2023-12-20T15:23:22;5.40;99.90
4453;DHT22;2239;48.152;11.584;2023-12-20T15:25:51;5.40;99.90
4453;DHT22;2239;48.152;11.584;2023-12-20T15:28:17;5.40;99.90
4453;DHT22;2239;48.152;11.584;2023-12-20T15:30:43;5.40;99.90
4453;DHT22;2239;48.152;11.584;2023-12-20T15:33:08;5.40;99.90
4453;DHT22;2239;48.152;11.584;2023-12-20T15:35:34;5.40;99.90
4453;DHT22;2239;48.152;11.584;2023-12-20T15:37:59;5.40;99.90
4453;DHT22;2239;48.152;11.584;2023-12-20T15:40:28;5.40;99.90
4453;DHT22;2239;48.152;11.584;2023-12-20T15:42:53;5.30;99.90
4453;DHT22;2239;48.152;11.584;2023-12-20T15:45:20;5.40;99.90
4453;DHT22;2239;48.152;11.584;2023-12-20T15:47:46;5.30;99.90
4453;DHT22;2239;48.152;11.584;2023-12-20T15:50:12;5.30;99.90
4453;DHT22;2239;48.152;11.584;2023-12-20T15:52:37;5.30;99.90
4453;DHT22;2239;48.152;11.584;2023-12-20T15:55:03;5.20;99.90
4453;DHT22;2239;48.152;11.584;2023-12-20T15:57:29;5.20;99.90